Time;durP1;ratioP1;P1;durP2;ratioP2;P2;SDS_P1;SDS_P2;PMS_P1;PMS_P2;Temp;Humidity;BMP_temperature;BMP_pressure;BME280_temperature;BME280_humidity;BME280_pressure;Samples;Min_cycle;Max_cycle;Signal;HPM_P1;HPM_P2
2024/01/12 00:00:12;;;;;;;17.20;9.03;;;;;;;-7.82;69.92;93356.75;523881;28;826;-69
2024/01/12 00:00:28;;;;;;;16.10;8.60;;;;;;;-7.84;70.02;93358.41;523819;28;814;-69
2024/01/12 00:00:43;;;;;;;14.07;8.63;;;;;;;-7.86;70.55;93356.13;523886;28;854;-69
2024/01/12 00:00:59;;;;;;;14.70;8.73;;;;;;;-7.85;70.55;93363.00;523857;28;798;-69
2024/01/12 00:01:17;;;;;;;14.13;8.60;;;;;;;-7.86;70.64;93358.09;523942;28;932;-69
2024/01/12 00:01:32;;;;;;;13.07;8.85;;;;;;;-7.87;70.56;93361.94;523876;28;826;-69
2024/01/12 00:01:49;;;;;;;14.25;9.20;;;;;;;-7.86;70.60;93361.50;523792;28;766;-69
2024/01/12 00:02:05;;;;;;;14.18;9.38;;;;;;;-7.87;70.65;93359.25;523939;28;1037;-69
2024/01/12 00:02:20;;;;;;;12.67;9.00;;;;;;;-7.84;70.84;93355.72;523770;28;865;-69
2024/01/12 00:02:35;;;;;;;12.05;8.68;;;;;;;-7.81;70.71;93360.19;523887;28;830;-69
2024/01/12 00:02:51;;;;;;;12.33;8.87;;;;;;;-7.77;70.79;93364.25;523833;28;858;-69
2024/01/12 00:03:06;;;;;;;10.35;8.43;;;;;;;-7.72;70.58;93358.34;523784;28;790;-69
2024/01/12 00:03:22;;;;;;;11.27;8.20;;;;;;;-7.66;70.52;93358.53;523925;28;813;-69
2024/01/12 00:03:37;;;;;;;12.73;8.07;;;;;;;-7.62;70.63;93358.44;524375;28;1104;-69
2024/01/12 00:03:53;;;;;;;12.30;8.18;;;;;;;-7.56;70.62;93357.44;525993;28;853;-69
2024/01/12 00:04:08;;;;;;;12.82;8.55;;;;;;;-7.51;70.46;93361.50;526028;28;777;-69
2024/01/12 00:04:24;;;;;;;14.70;9.10;;;;;;;-7.47;70.40;93354.06;525722;28;1190;-69
2024/01/12 00:04:39;;;;;;;15.07;9.32;;;;;;;-7.43;70.42;93357.38;523785;28;1147;-69
2024/01/12 00:04:54;;;;;;;13.67;8.80;;;;;;;-7.39;70.05;93355.31;523949;28;802;-69
2024/01/12 00:05:10;;;;;;;13.17;9.43;;;;;;;-7.38;69.88;93356.78;523929;28;900;-69
2024/01/12 00:05:25;;;;;;;13.02;10.00;;;;;;;-7.33;69.87;93364.28;523774;28;861;-69
2024/01/12 00:05:41;;;;;;;13.10;9.83;;;;;;;-7.30;70.16;93363.41;523811;28;1158;-69
2024/01/12 00:05:56;;;;;;;12.85;9.65;;;;;;;-7.30;70.04;93361.50;523730;28;870;-69
2024/01/12 00:06:12;;;;;;;15.70;9.87;;;;;;;-7.27;69.97;93357.16;523803;28;897;-69
2024/01/12 00:06:27;;;;;;;17.92;10.23;;;;;;;-7.25;70.07;93365.53;523680;28;838;-69
2024/01/12 00:06:43;;;;;;;16.67;10.17;;;;;;;-7.38;69.65;93338.78;523695;28;861;-69
2024/01/12 00:06:58;;;;;;;16.00;9.88;;;;;;;-7.19;70.01;93366.47;523727;28;802;-69
2024/01/12 00:07:13;;;;;;;16.23;10.33;;;;;;;-7.17;69.84;93361.41;523710;28;940;-69
2024/01/12 00:07:29;;;;;;;15.75;10.27;;;;;;;-7.17;69.46;93364.09;523577;28;794;-69
2024/01/12 00:07:44;;;;;;;16.60;10.37;;;;;;;-7.19;69.15;93361.84;523699;28;872;-69
2024/01/12 00:08:00;;;;;;;17.73;10.43;;;;;;;-7.22;68.71;93356.63;523698;28;853;-69
2024/01/12 00:08:15;;;;;;;18.10;10.30;;;;;;;-7.27;68.62;93360.59;523887;28;849;-69
2024/01/12 00:08:32;;;;;;;17.70;10.38;;;;;;;-7.27;68.25;93362.53;523918;28;790;-69
2024/01/12 00:08:48;;;;;;;19.65;10.95;;;;;;;-7.27;68.48;93363.28;523827;28;837;-69
2024/01/12 00:09:04;;;;;;;19.63;11.30;;;;;;;-7.37;68.10;93331.47;523873;28;766;-69
2024/01/12 00:09:19;;;;;;;16.83;10.52;;;;;;;-7.18;68.39;93359.91;523868;28;966;-69
2024/01/12 00:09:35;;;;;;;15.82;9.88;;;;;;;-7.12;68.00;93366.19;523929;28;806;-69
2024/01/12 00:09:50;;;;;;;15.07;9.97;;;;;;;-7.08;67.40;93364.16;523818;28;908;-69
2024/01/12 00:10:08;;;;;;;16.55;10.30;;;;;;;-7.05;67.53;93355.97;523799;28;763;-69
2024/01/12 00:10:23;;;;;;;18.00;10.90;;;;;;;-7.00;67.38;93363.47;523932;28;877;-69
2024/01/12 00:10:39;;;;;;;18.55;11.57;;;;;;;-6.95;67.11;93362.13;523860;28;857;-69
2024/01/12 00:10:55;;;;;;;20.38;12.43;;;;;;;-6.95;66.64;93356.75;523851;28;845;-69
2024/01/12 00:11:10;;;;;;;16.80;10.60;;;;;;;-6.98;66.85;93361.09;523929;28;924;-69
2024/01/12 00:11:26;;;;;;;14.30;9.93;;;;;;;-6.97;66.43;93354.53;523781;28;766;-69
2024/01/12 00:11:41;;;;;;;16.90;10.73;;;;;;;-6.95;66.71;93362.88;523879;28;814;-69
2024/01/12 00:11:57;;;;;;;18.52;10.52;;;;;;;-6.91;66.77;93357.41;523852;28;861;-69
2024/01/12 00:12:12;;;;;;;19.83;10.40;;;;;;;-6.89;66.46;93356.94;523865;28;1093;-69
2024/01/12 00:12:27;;;;;;;18.58;10.30;;;;;;;-6.89;66.60;93360.38;523703;28;1938;-69
2024/01/12 00:12:43;;;;;;;18.07;11.13;;;;;;;-6.90;66.28;93364.25;523839;28;821;-69
2024/01/12 00:12:58;;;;;;;16.63;10.80;;;;;;;-6.93;66.43;93365.13;523776;28;880;-69
2024/01/12 00:13:14;;;;;;;15.97;10.80;;;;;;;-6.91;66.35;93354.72;523874;28;838;-69
2024/01/12 00:13:29;;;;;;;16.67;11.65;;;;;;;-6.94;66.03;93350.22;523810;28;908;-69
2024/01/12 00:13:46;;;;;;;18.33;11.67;;;;;;;-6.98;66.44;93352.28;523808;28;809;-69
2024/01/12 00:14:02;;;;;;;19.90;11.50;;;;;;;-6.99;66.43;93356.13;523914;28;865;-69
2024/01/12 00:14:17;;;;;;;20.37;11.33;;;;;;;-6.97;66.25;93353.75;523774;28;1717;-69
2024/01/12 00:14:32;;;;;;;18.70;11.32;;;;;;;-6.94;66.64;93352.91;523914;28;849;-69
2024/01/12 00:14:48;;;;;;;16.17;10.93;;;;;;;-6.90;66.10;93350.81;523833;28;873;-69
2024/01/12 00:15:05;;;;;;;18.35;10.85;;;;;;;-6.86;66.13;93354.13;523814;28;814;-69
2024/01/12 00:15:20;;;;;;;19.25;11.40;;;;;;;-6.84;66.30;93353.69;523896;28;916;-69
2024/01/12 00:15:36;;;;;;;18.33;11.73;;;;;;;-6.86;65.85;93354.13;523725;28;891;-69
2024/01/12 00:15:51;;;;;;;19.15;11.60;;;;;;;-6.89;66.08;93354.25;523875;28;803;-69
2024/01/12 00:16:07;;;;;;;19.90;11.10;;;;;;;-6.93;65.60;93351.72;523863;28;854;-69
2024/01/12 00:16:23;;;;;;;19.52;10.90;;;;;;;-6.95;65.61;93356.75;523913;28;957;-69
2024/01/12 00:16:41;;;;;;;19.17;11.18;;;;;;;-6.91;65.51;93354.72;523832;28;845;-69
2024/01/12 00:16:56;;;;;;;19.35;12.10;;;;;;;-6.88;65.61;93353.06;523747;28;857;-69
2024/01/12 00:17:12;;;;;;;19.23;12.48;;;;;;;-6.87;65.81;93355.31;523963;28;845;-69
2024/01/12 00:17:27;;;;;;;20.00;12.03;;;;;;;-6.83;65.90;93347.13;523739;28;869;-69
2024/01/12 00:17:43;;;;;;;21.87;12.00;;;;;;;-6.82;65.91;93354.75;523832;28;854;-69
2024/01/12 00:17:58;;;;;;;21.88;12.68;;;;;;;-6.79;66.09;93353.13;523776;28;870;-69
2024/01/12 00:18:14;;;;;;;22.60;12.87;;;;;;;-6.77;65.93;93350.72;523874;28;865;-69
2024/01/12 00:18:29;;;;;;;24.55;12.60;;;;;;;-6.76;65.87;93353.00;523747;28;815;-69
2024/01/12 00:18:44;;;;;;;25.13;13.17;;;;;;;-6.74;65.51;93350.63;523867;28;932;-69
2024/01/12 00:19:00;;;;;;;25.38;14.30;;;;;;;-6.73;65.95;93362.09;523859;28;885;-69
2024/01/12 00:19:17;;;;;;;24.90;15.37;;;;;;;-6.80;65.68;93346.25;523805;28;797;-69
2024/01/12 00:19:33;;;;;;;26.58;15.90;;;;;;;-6.76;65.55;93358.38;523863;28;908;-69
2024/01/12 00:19:48;;;;;;;27.83;16.00;;;;;;;-6.76;65.82;93355.69;523773;28;827;-69
2024/01/12 00:20:04;;;;;;;28.53;16.53;;;;;;;-6.77;66.08;93359.53;523828;28;857;-69
2024/01/12 00:20:20;;;;;;;29.25;16.35;;;;;;;-6.76;65.63;93354.94;523892;28;842;-69
2024/01/12 00:20:39;;;;;;;26.03;14.57;;;;;;;-6.74;65.54;93356.00;523824;28;782;-69
2024/01/12 00:20:55;;;;;;;24.55;13.50;;;;;;;-6.72;66.14;93353.59;523738;28;877;-69
2024/01/12 00:21:10;;;;;;;22.57;13.33;;;;;;;-6.68;65.85;93350.78;523785;28;925;-69
2024/01/12 00:21:25;;;;;;;23.80;13.63;;;;;;;-6.66;65.95;93356.44;523862;28;836;-69
2024/01/12 00:21:44;;;;;;;25.08;13.98;;;;;;;-6.62;65.38;93363.19;523889;28;814;-69
2024/01/12 00:21:59;;;;;;;27.80;15.10;;;;;;;-6.60;65.37;93357.38;523818;28;935;-69
2024/01/12 00:22:15;;;;;;;26.98;15.48;;;;;;;-6.60;65.08;93360.81;523858;28;782;-69
2024/01/12 00:22:30;;;;;;;27.17;16.20;;;;;;;-6.62;65.04;93359.75;523737;28;933;-69
2024/01/12 00:22:46;;;;;;;29.92;17.02;;;;;;;-6.64;64.92;93357.50;523810;28;770;-69
2024/01/12 00:23:02;;;;;;;27.60;16.57;;;;;;;-6.64;64.54;93357.50;523888;28;798;-69
2024/01/12 00:23:17;;;;;;;28.75;17.63;;;;;;;-6.63;64.74;93358.28;523834;28;854;-69
2024/01/12 00:23:33;;;;;;;31.47;19.03;;;;;;;-6.61;65.02;93359.31;523566;28;936;-69
2024/01/12 00:23:48;;;;;;;32.57;19.83;;;;;;;-6.61;64.70;93353.97;523759;28;847;-69
2024/01/12 00:24:04;;;;;;;32.92;19.77;;;;;;;-6.58;64.75;93357.69;523839;28;873;-69
2024/01/12 00:24:19;;;;;;;32.00;20.13;;;;;;;-6.59;64.98;93350.81;523832;28;1047;-69
2024/01/12 00:24:35;;;;;;;31.73;20.92;;;;;;;-6.55;64.92;93360.25;523862;28;854;-69
2024/01/12 00:24:50;;;;;;;33.90;21.23;;;;;;;-6.54;64.55;93359.03;523842;28;818;-69
2024/01/12 00:25:06;;;;;;;32.75;20.05;;;;;;;-6.52;64.77;93355.94;523833;28;885;-69
2024/01/12 00:25:22;;;;;;;29.42;18.65;;;;;;;-6.54;64.49;93352.94;523732;28;921;-69
2024/01/12 00:25:38;;;;;;;27.13;17.38;;;;;;;-6.54;64.60;93350.97;523821;28;845;-69
2024/01/12 00:25:58;;;;;;;26.55;15.82;;;;;;;-6.54;64.37;93359.03;523801;28;794;-69
2024/01/12 00:26:14;;;;;;;21.80;14.48;;;;;;;-6.51;64.48;93360.09;523931;28;1017;-69
2024/01/12 00:26:29;;;;;;;21.55;14.98;;;;;;;-6.50;64.35;93362.34;523780;28;865;-69
2024/01/12 00:26:45;;;;;;;22.07;14.17;;;;;;;-6.49;64.25;93360.41;523752;28;960;-69
2024/01/12 00:27:00;;;;;;;21.10;12.65;;;;;;;-6.49;64.42;93358.47;523869;28;888;-69
2024/01/12 00:27:16;;;;;;;20.30;12.60;;;;;;;-6.54;64.55;93359.03;523801;28;857;-69
2024/01/12 00:27:31;;;;;;;20.27;12.63;;;;;;;-6.58;64.68;93361.09;523748;28;866;-69
2024/01/12 00:27:47;;;;;;;20.00;12.30;;;;;;;-6.59;64.30;93358.88;523875;28;778;-69
2024/01/12 00:28:02;;;;;;;19.83;12.93;;;;;;;-6.61;64.71;93359.31;523789;28;865;-69
2024/01/12 00:28:18;;;;;;;21.40;13.77;;;;;;;-6.61;64.91;93362.00;523847;28;1105;-69
2024/01/12 00:28:33;;;;;;;22.80;13.60;;;;;;;-6.60;64.59;93365.41;523825;28;821;-69
2024/01/12 00:28:49;;;;;;;22.70;13.47;;;;;;;-6.64;65.00;93359.44;523773;28;818;-69
2024/01/12 00:29:04;;;;;;;20.93;13.40;;;;;;;-6.61;64.91;93364.69;523906;28;1095;-69
2024/01/12 00:29:20;;;;;;;20.40;13.77;;;;;;;-6.59;65.04;93362.31;523852;28;891;-69
2024/01/12 00:29:36;;;;;;;23.40;14.32;;;;;;;-6.57;64.52;93359.94;523794;28;845;-69
2024/01/12 00:29:51;;;;;;;23.45;14.43;;;;;;;-6.54;64.64;93356.34;523882;28;908;-69
2024/01/12 00:30:07;;;;;;;22.13;14.65;;;;;;;-6.51;64.33;93358.16;523841;28;802;-69
2024/01/12 00:30:23;;;;;;;23.83;14.77;;;;;;;-6.48;64.51;93357.28;523885;28;933;-69
2024/01/12 00:30:38;;;;;;;23.03;15.20;;;;;;;-6.45;64.35;93359.06;523805;28;829;-69
2024/01/12 00:30:54;;;;;;;22.48;15.20;;;;;;;-6.41;63.84;93351.63;523770;28;849;-69
2024/01/12 00:31:10;;;;;;;21.80;14.63;;;;;;;-6.41;64.03;93351.63;523866;28;862;-69
2024/01/12 00:31:25;;;;;;;24.03;14.07;;;;;;;-6.38;64.11;93360.72;523824;28;805;-69
2024/01/12 00:31:41;;;;;;;25.05;14.07;;;;;;;-6.37;63.87;93359.56;523919;28;790;-69
2024/01/12 00:31:56;;;;;;;21.37;13.50;;;;;;;-6.37;63.57;93360.31;523769;28;1117;-69
2024/01/12 00:32:12;;;;;;;22.13;12.63;;;;;;;-6.37;63.83;93357.63;523806;28;861;-69
2024/01/12 00:32:27;;;;;;;21.77;12.77;;;;;;;-6.36;63.84;93359.09;523701;28;1918;-69
2024/01/12 00:32:42;;;;;;;23.27;14.07;;;;;;;-6.35;63.81;93366.00;523871;28;769;-69
2024/01/12 00:32:58;;;;;;;24.33;14.45;;;;;;;-6.34;63.69;93356.72;523773;28;897;-69
2024/01/12 00:33:13;;;;;;;22.17;13.47;;;;;;;-6.33;63.81;93360.91;523617;28;2088;-69
2024/01/12 00:33:29;;;;;;;20.45;12.88;;;;;;;-6.30;63.25;93361.94;523612;28;774;-69
2024/01/12 00:33:44;;;;;;;19.53;13.03;;;;;;;-6.29;63.24;93355.41;523676;28;806;-69
2024/01/12 00:34:00;;;;;;;19.65;13.32;;;;;;;-6.30;63.23;93360.00;523637;28;857;-69
2024/01/12 00:34:15;;;;;;;20.03;13.47;;;;;;;-6.35;63.42;93360.63;523687;28;885;-69
2024/01/12 00:34:30;;;;;;;22.38;13.43;;;;;;;-6.45;63.47;93361.75;523725;28;774;-69
2024/01/12 00:34:46;;;;;;;21.10;12.87;;;;;;;-6.73;63.50;93333.31;523666;28;874;-69
2024/01/12 00:35:02;;;;;;;20.83;12.90;;;;;;;-6.59;63.73;93362.31;523627;28;862;-69
2024/01/12 00:35:17;;;;;;;18.97;13.10;;;;;;;-6.64;64.20;93360.19;523809;28;766;-69
2024/01/12 00:35:32;;;;;;;19.77;12.88;;;;;;;-6.68;64.19;93359.59;523809;28;909;-69
2024/01/12 00:35:48;;;;;;;21.13;12.17;;;;;;;-6.69;63.91;93362.72;523864;28;810;-69
2024/01/12 00:36:04;;;;;;;19.00;11.43;;;;;;;-6.67;64.43;93366.44;523808;28;941;-69
2024/01/12 00:36:20;;;;;;;19.50;11.65;;;;;;;-6.64;64.14;93364.81;523818;28;799;-69
2024/01/12 00:36:35;;;;;;;21.30;12.23;;;;;;;-6.61;64.59;93363.94;523723;28;845;-69
2024/01/12 00:36:53;;;;;;;18.65;12.27;;;;;;;-6.60;64.67;93363.50;523884;28;838;-69
2024/01/12 00:37:08;;;;;;;16.30;11.65;;;;;;;-6.57;63.94;93359.19;523808;28;861;-69
2024/01/12 00:37:24;;;;;;;17.30;11.40;;;;;;;-6.58;63.93;93358.44;523777;28;837;-69
2024/01/12 00:37:40;;;;;;;19.10;12.15;;;;;;;-6.62;64.40;93368.56;523734;28;762;-69
2024/01/12 00:37:56;;;;;;;19.05;12.75;;;;;;;-6.65;64.34;93358.72;523799;28;830;-69
2024/01/12 00:38:11;;;;;;;17.58;12.48;;;;;;;-6.79;64.39;93359.22;523878;28;876;-69
2024/01/12 00:38:27;;;;;;;19.03;12.83;;;;;;;-6.91;64.90;93357.41;523873;28;810;-69
2024/01/12 00:38:42;;;;;;;18.42;12.68;;;;;;;-6.96;65.16;93366.75;523869;28;854;-69
2024/01/12 00:38:58;;;;;;;18.73;12.17;;;;;;;-6.98;65.11;93365.69;523738;28;837;-69
2024/01/12 00:39:15;;;;;;;18.10;11.82;;;;;;;-7.00;65.12;93366.16;523735;28;791;-69
2024/01/12 00:39:32;;;;;;;15.88;11.00;;;;;;;-7.03;65.45;93367.00;523745;28;988;-69
2024/01/12 00:39:47;;;;;;;22.10;12.13;;;;;;;-6.99;65.60;93362.25;523751;28;944;-69
2024/01/12 00:40:03;;;;;;;23.23;13.23;;;;;;;-6.95;65.58;93370.16;523849;28;849;-69
2024/01/12 00:40:18;;;;;;;18.10;12.10;;;;;;;-6.91;65.40;93356.66;523871;28;790;-69
2024/01/12 00:40:34;;;;;;;18.67;12.10;;;;;;;-6.86;65.27;93362.19;523766;28;833;-69
2024/01/12 00:40:49;;;;;;;19.45;12.32;;;;;;;-6.83;65.30;93363.22;523846;28;838;-69
2024/01/12 00:41:05;;;;;;;19.43;12.00;;;;;;;-6.81;64.84;93358.94;523803;28;846;-69
2024/01/12 00:41:22;;;;;;;18.55;11.98;;;;;;;-6.83;65.14;93358.63;523884;28;857;-69
2024/01/12 00:41:37;;;;;;;16.95;11.95;;;;;;;-6.82;65.27;93357.41;523755;28;826;-69
2024/01/12 00:41:54;;;;;;;18.80;12.45;;;;;;;-6.80;64.81;93357.75;523741;28;948;-69
2024/01/12 00:42:09;;;;;;;19.80;12.35;;;;;;;-6.79;65.12;93367.28;523875;28;846;-69
2024/01/12 00:42:25;;;;;;;21.80;11.97;;;;;;;-6.78;65.22;93360.75;523807;28;905;-69
2024/01/12 00:42:40;;;;;;;20.40;11.27;;;;;;;-6.80;65.05;93363.13;523803;28;810;-69
2024/01/12 00:42:56;;;;;;;18.23;12.25;;;;;;;-6.83;65.07;93364.00;523778;28;790;-69
2024/01/12 00:43:11;;;;;;;19.23;13.63;;;;;;;-6.89;65.02;93363.06;523814;28;996;-69
2024/01/12 00:43:26;;;;;;;18.60;13.63;;;;;;;-6.95;65.02;93357.50;523770;28;845;-69
2024/01/12 00:43:42;;;;;;;20.40;13.43;;;;;;;-7.03;65.06;93358.97;523791;28;810;-69
2024/01/12 00:43:57;;;;;;;22.33;13.80;;;;;;;-7.09;64.85;93358.03;523721;28;754;-69
2024/01/12 00:44:13;;;;;;;22.27;14.43;;;;;;;-7.11;65.20;93365.03;523908;28;786;-69
2024/01/12 00:44:28;;;;;;;21.33;14.03;;;;;;;-7.20;65.35;93360.34;523784;28;870;-69
2024/01/12 00:44:44;;;;;;;24.60;14.50;;;;;;;-7.30;66.14;93360.75;523825;28;856;-69
2024/01/12 00:44:59;;;;;;;24.30;14.80;;;;;;;-7.36;66.04;93355.16;523757;28;885;-69
2024/01/12 00:45:14;;;;;;;24.38;15.10;;;;;;;-7.38;66.10;93356.78;523899;28;820;-69
2024/01/12 00:45:30;;;;;;;28.70;16.13;;;;;;;-7.42;66.21;93356.16;523816;28;774;-69
2024/01/12 00:45:45;;;;;;;30.80;16.60;;;;;;;-7.42;66.34;93364.22;523765;28;893;-69
2024/01/12 00:46:02;;;;;;;31.63;17.27;;;;;;;-7.41;66.22;93368.41;523769;28;771;-69
2024/01/12 00:46:17;;;;;;;32.95;18.63;;;;;;;-7.40;66.20;93361.84;523826;28;858;-69
2024/01/12 00:46:33;;;;;;;29.67;18.83;;;;;;;-7.37;66.26;93355.63;523817;28;845;-69
2024/01/12 00:46:51;;;;;;;27.52;17.85;;;;;;;-7.51;66.55;93335.41;523833;28;810;-69
2024/01/12 00:47:07;;;;;;;29.48;18.27;;;;;;;-7.38;66.33;93359.47;523839;28;809;-69
2024/01/12 00:47:22;;;;;;;32.42;19.35;;;;;;;-7.37;66.49;93355.63;523833;28;897;-69
2024/01/12 00:47:38;;;;;;;33.13;19.83;;;;;;;-7.37;66.35;93352.94;523809;28;778;-69
2024/01/12 00:47:53;;;;;;;33.63;20.27;;;;;;;-7.42;66.61;93351.56;523721;28;948;-69
2024/01/12 00:48:09;;;;;;;33.13;19.67;;;;;;;-7.41;66.72;93355.00;523777;28;778;-69
2024/01/12 00:48:24;;;;;;;32.53;18.87;;;;;;;-7.40;66.30;93354.56;523839;28;1140;-69
2024/01/12 00:48:40;;;;;;;34.72;19.13;;;;;;;-7.45;66.58;93357.06;523790;28;789;-69
2024/01/12 00:48:55;;;;;;;35.93;20.17;;;;;;;-7.44;66.81;93353.94;523686;28;829;-69
2024/01/12 00:49:11;;;;;;;35.88;21.73;;;;;;;-7.45;66.68;93351.69;523861;28;905;-70
2024/01/12 00:49:26;;;;;;;37.17;22.40;;;;;;;-7.43;66.70;93354.69;523709;28;889;-69
2024/01/12 00:49:42;;;;;;;37.23;21.57;;;;;;;-7.40;66.57;93357.22;523794;28;806;-69
2024/01/12 00:49:57;;;;;;;36.67;21.67;;;;;;;-7.38;66.28;93356.78;523777;28;861;-69
2024/01/12 00:50:13;;;;;;;35.10;22.30;;;;;;;-7.47;66.53;93344.06;523799;28;861;-69
2024/01/12 00:50:29;;;;;;;37.22;23.17;;;;;;;-7.39;66.54;93355.31;523720;28;927;-69
2024/01/12 00:50:44;;;;;;;42.13;23.92;;;;;;;-7.35;66.45;93355.94;523866;28;852;-69
2024/01/12 00:51:00;;;;;;;44.03;24.00;;;;;;;-7.33;66.35;93351.63;523742;28;790;-69
2024/01/12 00:51:15;;;;;;;52.88;29.80;;;;;;;-7.34;66.45;93355.47;523835;28;786;-69
2024/01/12 00:51:31;;;;;;;66.27;35.93;;;;;;;-7.37;66.45;93352.94;523779;28;809;-69
2024/01/12 00:51:46;;;;;;;69.00;35.35;;;;;;;-7.30;66.51;93356.13;523749;28;829;-69
2024/01/12 00:52:02;;;;;;;59.75;31.10;;;;;;;-7.30;66.49;93358.06;523795;28;868;-69
2024/01/12 00:52:17;;;;;;;53.90;28.90;;;;;;;-7.30;66.16;93356.13;523699;28;1950;-69
2024/01/12 00:52:33;;;;;;;53.33;29.73;;;;;;;-7.26;66.00;93364.03;523679;28;869;-69
2024/01/12 00:52:48;;;;;;;53.20;29.90;;;;;;;-7.24;66.06;93361.66;523755;28;837;-69
2024/01/12 00:53:04;;;;;;;54.22;29.83;;;;;;;-7.23;66.03;93363.91;523724;28;1106;-69
2024/01/12 00:53:20;;;;;;;52.37;29.63;;;;;;;-7.23;65.89;93357.78;523878;28;832;-69
2024/01/12 00:53:35;;;;;;;52.95;29.13;;;;;;;-7.25;66.13;93358.22;523761;28;864;-69
2024/01/12 00:53:51;;;;;;;48.15;26.27;;;;;;;-7.27;66.08;93360.59;523852;28;849;-69
2024/01/12 00:54:07;;;;;;;40.77;23.20;;;;;;;-7.24;65.99;93353.63;523842;28;793;-69
2024/01/12 00:54:26;;;;;;;35.40;21.60;;;;;;;-7.21;65.85;93360.81;523810;28;841;-69
2024/01/12 00:54:42;;;;;;;32.75;19.70;;;;;;;-7.18;66.01;93355.31;523831;28;881;-69
2024/01/12 00:54:59;;;;;;;32.07;19.03;;;;;;;-7.24;65.89;93357.06;523782;28;758;-69
2024/01/12 00:55:15;;;;;;;28.85;16.65;;;;;;;-7.46;66.00;93320.69;523848;28;864;-69
2024/01/12 00:55:30;;;;;;;25.77;14.03;;;;;;;-7.23;65.70;93355.84;523755;28;806;-69
2024/01/12 00:55:46;;;;;;;20.38;13.07;;;;;;;-7.20;65.81;93351.56;523709;28;873;-69
2024/01/12 00:56:01;;;;;;;20.10;12.80;;;;;;;-7.20;65.53;93351.56;523854;28;801;-69
2024/01/12 00:56:17;;;;;;;22.67;13.40;;;;;;;-7.16;65.35;93358.28;523834;28;749;-69
2024/01/12 00:56:32;;;;;;;25.73;14.50;;;;;;;-7.12;65.49;93355.47;523774;28;810;-69
2024/01/12 00:56:48;;;;;;;26.77;14.98;;;;;;;-7.08;65.11;93358.78;523749;28;1093;-69
2024/01/12 00:57:03;;;;;;;24.73;14.63;;;;;;;-7.07;64.81;93355.66;523496;28;2286;-69
2024/01/12 00:57:19;;;;;;;24.38;15.60;;;;;;;-7.05;64.60;93352.53;523600;28;865;-69
2024/01/12 00:57:34;;;;;;;26.80;16.00;;;;;;;-7.02;64.77;93351.66;523635;28;766;-69
2024/01/12 00:57:49;;;;;;;25.00;14.85;;;;;;;-6.99;65.05;93354.22;523621;28;805;-69
2024/01/12 00:58:05;;;;;;;24.27;14.97;;;;;;;-6.99;65.09;93350.78;523574;28;849;-69
2024/01/12 00:58:20;;;;;;;26.00;15.35;;;;;;;-6.99;65.31;93345.41;523657;28;802;-69
2024/01/12 00:58:36;;;;;;;25.60;15.43;;;;;;;-6.96;65.16;93350.66;523552;28;836;-69
2024/01/12 00:58:51;;;;;;;24.48;15.85;;;;;;;-7.04;65.51;93343.31;523606;28;948;-69
2024/01/12 00:59:07;;;;;;;23.23;15.40;;;;;;;-7.02;65.85;93354.34;523794;28;766;-69
2024/01/12 00:59:24;;;;;;;22.15;14.32;;;;;;;-7.02;65.74;93347.03;523820;28;861;-69
2024/01/12 00:59:39;;;;;;;22.92;14.25;;;;;;;-7.01;65.79;93356.59;523812;28;861;-69
2024/01/12 00:59:55;;;;;;;23.87;14.37;;;;;;;-7.03;66.27;93352.84;523738;28;833;-69
2024/01/12 01:00:11;;;;;;;23.00;14.30;;;;;;;-7.04;66.22;93354.78;523882;28;877;-69
2024/01/12 01:00:26;;;;;;;20.20;13.73;;;;;;;-7.16;66.11;93326.09;523720;28;793;-69
2024/01/12 01:00:42;;;;;;;20.23;13.50;;;;;;;-7.11;66.68;93352.38;523866;28;868;-69
2024/01/12 01:00:57;;;;;;;21.40;13.80;;;;;;;-7.12;66.55;93353.53;523766;28;853;-69
2024/01/12 01:01:12;;;;;;;20.93;13.30;;;;;;;-7.09;66.93;93352.69;523841;28;949;-69
2024/01/12 01:01:28;;;;;;;23.33;12.93;;;;;;;-7.05;67.08;93357.91;523740;28;814;-69
2024/01/12 01:01:43;;;;;;;22.42;13.48;;;;;;;-7.04;66.88;93354.03;523869;28;942;-69
2024/01/12 01:01:59;;;;;;;21.10;13.13;;;;;;;-7.03;66.78;93345.56;523770;28;797;-69
2024/01/12 01:02:14;;;;;;;21.98;13.32;;;;;;;-7.01;66.92;93348.53;523880;28;853;-69
2024/01/12 01:02:30;;;;;;;20.60;13.37;;;;;;;-6.99;67.14;93359.56;523752;28;814;-69
2024/01/12 01:02:46;;;;;;;18.85;12.43;;;;;;;-6.98;67.34;93347.66;523801;28;983;-69
2024/01/12 01:03:02;;;;;;;18.55;12.20;;;;;;;-6.96;66.79;93350.66;523780;28;869;-69
2024/01/12 01:03:17;;;;;;;19.98;12.77;;;;;;;-6.93;67.17;93353.66;523834;28;917;-69
2024/01/12 01:03:33;;;;;;;21.77;13.13;;;;;;;-6.91;67.14;93352.03;523734;28;1160;-69
2024/01/12 01:03:48;;;;;;;21.85;13.10;;;;;;;-6.91;66.90;93357.41;523804;28;868;-69
2024/01/12 01:04:04;;;;;;;20.73;12.50;;;;;;;-6.90;67.21;93356.19;523781;28;856;-69
2024/01/12 01:04:19;;;;;;;21.43;12.20;;;;;;;-6.89;67.05;93344.28;523840;28;774;-69
2024/01/12 01:04:35;;;;;;;19.55;11.65;;;;;;;-6.92;67.62;93350.53;525359;28;1266;-69
2024/01/12 01:04:50;;;;;;;15.07;10.03;;;;;;;-6.90;68.09;93347.38;525866;28;1033;-69
2024/01/12 01:05:06;;;;;;;13.40;9.25;;;;;;;-6.94;68.38;93352.91;525898;28;794;-69
2024/01/12 01:05:22;;;;;;;12.82;9.07;;;;;;;-6.91;68.60;93352.03;525870;28;873;-69
2024/01/12 01:05:37;;;;;;;13.80;9.30;;;;;;;-6.90;68.54;93350.06;525661;28;1186;-69
2024/01/12 01:05:53;;;;;;;14.87;10.30;;;;;;;-6.97;68.97;93348.41;525913;28;801;-69
2024/01/12 01:06:08;;;;;;;15.48;10.57;;;;;;;-6.99;69.19;93348.09;525857;28;872;-69
2024/01/12 01:06:24;;;;;;;14.73;9.40;;;;;;;-6.98;69.42;93349.59;525905;28;849;-69
2024/01/12 01:06:39;;;;;;;13.37;8.90;;;;;;;-7.00;69.43;93341.25;525875;28;924;-69
2024/01/12 01:06:55;;;;;;;12.50;8.80;;;;;;;-6.98;69.04;93346.91;525789;28;777;-69
2024/01/12 01:07:10;;;;;;;12.80;9.13;;;;;;;-7.02;69.70;93346.31;525987;28;817;-69
2024/01/12 01:07:26;;;;;;;12.05;9.05;;;;;;;-7.06;69.69;93351.78;525833;28;857;-69
2024/01/12 01:07:41;;;;;;;13.10;9.03;;;;;;;-7.06;69.72;93340.31;525939;28;845;-69
2024/01/12 01:07:56;;;;;;;14.20;8.57;;;;;;;-7.03;69.57;93344.78;525854;28;821;-69
2024/01/12 01:08:12;;;;;;;15.23;8.77;;;;;;;-6.99;69.48;93350.78;525783;28;828;-69
2024/01/12 01:08:27;;;;;;;16.03;9.97;;;;;;;-6.96;69.88;93347.97;525863;28;881;-69
2024/01/12 01:08:43;;;;;;;13.88;9.40;;;;;;;-6.94;69.73;93344.84;525872;28;841;-69
2024/01/12 01:08:58;;;;;;;13.40;9.33;;;;;;;-6.93;69.97;93349.03;525875;28;797;-69
2024/01/12 01:09:14;;;;;;;13.65;9.68;;;;;;;-6.90;69.86;93348.16;525929;28;859;-69
2024/01/12 01:09:30;;;;;;;14.82;9.18;;;;;;;-6.86;69.84;93342.66;525839;28;885;-69
2024/01/12 01:09:45;;;;;;;15.98;9.63;;;;;;;-6.83;69.54;93344.44;525847;28;888;-69
2024/01/12 01:10:01;;;;;;;15.13;9.93;;;;;;;-6.81;69.66;93350.88;525888;28;837;-69
2024/01/12 01:10:16;;;;;;;15.40;10.03;;;;;;;-6.80;70.11;93346.25;525827;28;897;-69
2024/01/12 01:10:31;;;;;;;14.27;9.30;;;;;;;-6.85;69.68;93350.25;525887;28;786;-69
2024/01/12 01:10:47;;;;;;;13.43;8.80;;;;;;;-6.88;70.06;93345.00;525916;28;868;-69
2024/01/12 01:11:02;;;;;;;14.20;9.45;;;;;;;-6.89;69.82;93349.66;525823;28;781;-69
2024/01/12 01:11:18;;;;;;;13.73;9.73;;;;;;;-6.90;69.99;93342.03;525914;28;881;-69
2024/01/12 01:11:33;;;;;;;14.02;9.98;;;;;;;-6.86;69.85;93348.03;525884;28;824;-69
2024/01/12 01:11:52;;;;;;;16.33;10.43;;;;;;;-6.88;70.12;93342.31;525780;28;813;-69
2024/01/12 01:12:07;;;;;;;14.85;9.95;;;;;;;-6.89;70.40;93349.66;524952;28;1100;-69
2024/01/12 01:12:23;;;;;;;12.40;9.25;;;;;;;-6.86;70.32;93353.41;523615;28;1914;-69
2024/01/12 01:12:39;;;;;;;12.53;9.00;;;;;;;-6.84;70.32;93349.06;523780;28;837;-69
2024/01/12 01:12:54;;;;;;;12.65;9.20;;;;;;;-6.80;69.96;93352.38;523691;28;913;-69
2024/01/12 01:13:10;;;;;;;15.40;9.83;;;;;;;-6.76;70.14;93355.69;523731;28;825;-69
2024/01/12 01:13:25;;;;;;;16.83;9.90;;;;;;;-6.73;70.13;93349.41;523751;28;1045;-69
2024/01/12 01:13:41;;;;;;;15.43;9.83;;;;;;;-6.69;69.87;93351.97;523809;28;826;-69
2024/01/12 01:13:56;;;;;;;15.70;10.50;;;;;;;-6.66;69.52;93351.84;523681;28;786;-69
2024/01/12 01:14:12;;;;;;;16.23;10.40;;;;;;;-6.64;69.47;93354.81;523837;28;873;-69
2024/01/12 01:14:27;;;;;;;14.27;9.33;;;;;;;-6.62;69.40;93349.75;523752;28;810;-69
2024/01/12 01:14:43;;;;;;;14.82;9.57;;;;;;;-6.75;69.62;93327.63;523808;28;785;-69
2024/01/12 01:14:58;;;;;;;16.83;10.83;;;;;;;-6.57;69.38;93349.19;523803;28;865;-69